sensor_id;sensor_type;location;lat;lon;timestamp;P1;durP1;ratioP1;P2;durP2;ratioP2
14847;SDS011;7516;43.570;1.448;2022-07-04T00:00:23;2.65;;;2.30;;
14847;SDS011;7516;43.570;1.448;2022-07-04T00:02:50;5.28;;;2.65;;
14847;SDS011;7516;43.570;1.448;2022-07-04T00:05:18;3.17;;;2.22;;
14847;SDS011;7516;43.570;1.448;2022-07-04T00:07:48;3.38;;;2.28;;
14847;SDS011;7516;43.570;1.448;2022-07-04T00:10:17;5.57;;;2.33;;
14847;SDS011;7516;43.570;1.448;2022-07-04T00:12:46;3.92;;;2.13;;
14847;SDS011;7516;43.570;1.448;2022-07-04T00:15:13;3.63;;;1.77;;
14847;SDS011;7516;43.570;1.448;2022-07-04T00:17:41;3.20;;;1.88;;
14847;SDS011;7516;43.570;1.448;2022-07-04T00:20:09;3.40;;;2.25;;
14847;SDS011;7516;43.570;1.448;2022-07-04T00:22:37;5.63;;;2.08;;
14847;SDS011;7516;43.570;1.448;2022-07-04T00:25:05;2.45;;;1.33;;
14847;SDS011;7516;43.570;1.448;2022-07-04T00:27:35;3.75;;;1.60;;
14847;SDS011;7516;43.570;1.448;2022-07-04T00:30:02;3.22;;;1.55;;
14847;SDS011;7516;43.570;1.448;2022-07-04T00:32:30;3.28;;;1.70;;
14847;SDS011;7516;43.570;1.448;2022-07-04T00:34:58;3.08;;;1.58;;
14847;SDS011;7516;43.570;1.448;2022-07-04T00:37:25;2.03;;;1.50;;
14847;SDS011;7516;43.570;1.448;2022-07-04T00:39:53;4.35;;;1.83;;
14847;SDS011;7516;43.570;1.448;2022-07-04T00:42:21;3.17;;;1.52;;
14847;SDS011;7516;43.570;1.448;2022-07-04T00:44:50;2.78;;;1.48;;
14847;SDS011;7516;43.570;1.448;2022-07-04T00:47:17;2.58;;;1.50;;
14847;SDS011;7516;43.570;1.448;2022-07-04T00:49:45;2.78;;;1.20;;
14847;SDS011;7516;43.570;1.448;2022-07-04T00:52:12;3.67;;;1.50;;
14847;SDS011;7516;43.570;1.448;2022-07-04T00:54:40;3.97;;;1.48;;
14847;SDS011;7516;43.570;1.448;2022-07-04T00:57:08;3.53;;;1.63;;
14847;SDS011;7516;43.570;1.448;2022-07-04T00:59:35;2.85;;;1.45;;
14847;SDS011;7516;43.570;1.448;2022-07-04T01:02:04;3.80;;;1.70;;
14847;SDS011;7516;43.570;1.448;2022-07-04T01:04:33;4.70;;;1.65;;
14847;SDS011;7516;43.570;1.448;2022-07-04T01:07:01;3.70;;;1.20;;
14847;SDS011;7516;43.570;1.448;2022-07-04T01:09:30;1.63;;;1.20;;
14847;SDS011;7516;43.570;1.448;2022-07-04T01:11:57;2.75;;;1.30;;
14847;SDS011;7516;43.570;1.448;2022-07-04T01:14:25;4.50;;;1.40;;
14847;SDS011;7516;43.570;1.448;2022-07-04T01:16:52;1.92;;;1.30;;
14847;SDS011;7516;43.570;1.448;2022-07-04T01:19:21;3.33;;;1.13;;
14847;SDS011;7516;43.570;1.448;2022-07-04T01:21:50;2.33;;;1.20;;
14847;SDS011;7516;43.570;1.448;2022-07-04T01:24:17;2.72;;;1.48;;
14847;SDS011;7516;43.570;1.448;2022-07-04T01:26:45;3.60;;;1.45;;
14847;SDS011;7516;43.570;1.448;2022-07-04T01:29:12;4.50;;;1.50;;
14847;SDS011;7516;43.570;1.448;2022-07-04T01:31:40;3.13;;;1.20;;
14847;SDS011;7516;43.570;1.448;2022-07-04T01:34:07;4.82;;;1.48;;
14847;SDS011;7516;43.570;1.448;2022-07-04T01:36:35;1.88;;;1.05;;
14847;SDS011;7516;43.570;1.448;2022-07-04T01:39:04;2.22;;;1.17;;
14847;SDS011;7516;43.570;1.448;2022-07-04T01:41:33;4.63;;;1.20;;
14847;SDS011;7516;43.570;1.448;2022-07-04T01:44:00;4.47;;;1.35;;
14847;SDS011;7516;43.570;1.448;2022-07-04T01:46:28;2.78;;;1.17;;
14847;SDS011;7516;43.570;1.448;2022-07-04T01:48:56;3.85;;;1.52;;
14847;SDS011;7516;43.570;1.448;2022-07-04T01:51:23;3.45;;;1.20;;
14847;SDS011;7516;43.570;1.448;2022-07-04T01:53:51;3.53;;;1.27;;
14847;SDS011;7516;43.570;1.448;2022-07-04T01:56:20;3.13;;;1.55;;
14847;SDS011;7516;43.570;1.448;2022-07-04T01:58:47;2.92;;;1.42;;
14847;SDS011;7516;43.570;1.448;2022-07-04T02:01:15;3.55;;;1.10;;
14847;SDS011;7516;43.570;1.448;2022-07-04T02:03:57;3.15;;;1.40;;
14847;SDS011;7516;43.570;1.448;2022-07-04T02:06:25;1.92;;;1.23;;
14847;SDS011;7516;43.570;1.448;2022-07-04T02:08:53;6.65;;;1.88;;
14847;SDS011;7516;43.570;1.448;2022-07-04T02:11:40;4.05;;;1.20;;
14847;SDS011;7516;43.570;1.448;2022-07-04T02:14:22;3.53;;;1.45;;
14847;SDS011;7516;43.570;1.448;2022-07-04T02:16:49;4.03;;;1.48;;
14847;SDS011;7516;43.570;1.448;2022-07-04T02:19:17;3.35;;;1.27;;
14847;SDS011;7516;43.570;1.448;2022-07-04T02:21:45;2.17;;;1.52;;
14847;SDS011;7516;43.570;1.448;2022-07-04T02:24:12;2.33;;;1.30;;
14847;SDS011;7516;43.570;1.448;2022-07-04T02:26:41;4.13;;;1.23;;
14847;SDS011;7516;43.570;1.448;2022-07-04T02:29:08;3.45;;;1.50;;
14847;SDS011;7516;43.570;1.448;2022-07-04T02:31:36;3.40;;;1.40;;
14847;SDS011;7516;43.570;1.448;2022-07-04T02:34:03;2.17;;;1.30;;
14847;SDS011;7516;43.570;1.448;2022-07-04T02:36:31;2.53;;;1.48;;
14847;SDS011;7516;43.570;1.448;2022-07-04T02:38:58;2.95;;;1.42;;
14847;SDS011;7516;43.570;1.448;2022-07-04T02:41:26;4.25;;;1.60;;
14847;SDS011;7516;43.570;1.448;2022-07-04T02:43:55;5.68;;;1.60;;
14847;SDS011;7516;43.570;1.448;2022-07-04T02:46:22;2.50;;;1.30;;
14847;SDS011;7516;43.570;1.448;2022-07-04T02:48:50;5.60;;;1.70;;
14847;SDS011;7516;43.570;1.448;2022-07-04T02:51:18;7.60;;;1.73;;
14847;SDS011;7516;43.570;1.448;2022-07-04T02:53:45;2.33;;;1.52;;
14847;SDS011;7516;43.570;1.448;2022-07-04T02:56:13;3.78;;;1.52;;
14847;SDS011;7516;43.570;1.448;2022-07-04T02:58:40;5.63;;;2.00;;
14847;SDS011;7516;43.570;1.448;2022-07-04T03:01:09;4.53;;;1.60;;
14847;SDS011;7516;43.570;1.448;2022-07-04T03:03:37;3.50;;;1.60;;
14847;SDS011;7516;43.570;1.448;2022-07-04T03:06:05;3.15;;;1.50;;
14847;SDS011;7516;43.570;1.448;2022-07-04T03:08:34;5.15;;;1.60;;
14847;SDS011;7516;43.570;1.448;2022-07-04T03:11:02;4.28;;;1.65;;
14847;SDS011;7516;43.570;1.448;2022-07-04T03:13:30;3.30;;;1.63;;
14847;SDS011;7516;43.570;1.448;2022-07-04T03:15:57;3.05;;;1.52;;
14847;SDS011;7516;43.570;1.448;2022-07-04T03:18:26;2.65;;;1.60;;
14847;SDS011;7516;43.570;1.448;2022-07-04T03:20:54;5.00;;;1.70;;
14847;SDS011;7516;43.570;1.448;2022-07-04T03:23:21;3.53;;;1.80;;
14847;SDS011;7516;43.570;1.448;2022-07-04T03:25:49;3.38;;;1.80;;
14847;SDS011;7516;43.570;1.448;2022-07-04T03:28:16;3.28;;;1.50;;
14847;SDS011;7516;43.570;1.448;2022-07-04T03:30:44;3.20;;;1.55;;
14847;SDS011;7516;43.570;1.448;2022-07-04T03:33:11;3.00;;;1.65;;
14847;SDS011;7516;43.570;1.448;2022-07-04T03:35:40;3.17;;;1.60;;
14847;SDS011;7516;43.570;1.448;2022-07-04T03:38:08;2.78;;;1.92;;
14847;SDS011;7516;43.570;1.448;2022-07-04T03:40:35;2.72;;;1.60;;
14847;SDS011;7516;43.570;1.448;2022-07-04T03:43:03;3.70;;;1.60;;
14847;SDS011;7516;43.570;1.448;2022-07-04T03:45:31;4.32;;;1.80;;
14847;SDS011;7516;43.570;1.448;2022-07-04T03:47:59;2.65;;;1.80;;
14847;SDS011;7516;43.570;1.448;2022-07-04T03:50:28;4.93;;;2.05;;
14847;SDS011;7516;43.570;1.448;2022-07-04T03:52:57;4.40;;;1.98;;
14847;SDS011;7516;43.570;1.448;2022-07-04T03:55:24;3.00;;;1.80;;
14847;SDS011;7516;43.570;1.448;2022-07-04T03:57:52;3.38;;;1.73;;
14847;SDS011;7516;43.570;1.448;2022-07-04T04:00:19;3.72;;;1.80;;
14847;SDS011;7516;43.570;1.448;2022-07-04T04:02:47;4.05;;;1.70;;
14847;SDS011;7516;43.570;1.448;2022-07-04T04:05:14;4.55;;;1.83;;
14847;SDS011;7516;43.570;1.448;2022-07-04T04:07:57;3.83;;;1.55;;
14847;SDS011;7516;43.570;1.448;2022-07-04T04:10:25;5.05;;;2.10;;
14847;SDS011;7516;43.570;1.448;2022-07-04T04:12:55;5.60;;;1.90;;
14847;SDS011;7516;43.570;1.448;2022-07-04T04:15:23;4.68;;;1.83;;
14847;SDS011;7516;43.570;1.448;2022-07-04T04:17:51;3.33;;;1.80;;
14847;SDS011;7516;43.570;1.448;2022-07-04T04:20:19;5.63;;;2.45;;
14847;SDS011;7516;43.570;1.448;2022-07-04T04:22:46;6.65;;;2.50;;
14847;SDS011;7516;43.570;1.448;2022-07-04T04:25:16;3.38;;;1.77;;
14847;SDS011;7516;43.570;1.448;2022-07-04T04:27:44;6.05;;;1.80;;
14847;SDS011;7516;43.570;1.448;2022-07-04T04:30:12;3.92;;;2.03;;
14847;SDS011;7516;43.570;1.448;2022-07-04T04:32:39;7.40;;;2.30;;
14847;SDS011;7516;43.570;1.448;2022-07-04T04:35:07;4.22;;;2.17;;
14847;SDS011;7516;43.570;1.448;2022-07-04T04:37:35;4.70;;;2.53;;
14847;SDS011;7516;43.570;1.448;2022-07-04T04:40:03;4.18;;;2.28;;
14847;SDS011;7516;43.570;1.448;2022-07-04T04:42:32;3.53;;;2.30;;
14847;SDS011;7516;43.570;1.448;2022-07-04T04:45:01;4.75;;;2.53;;
14847;SDS011;7516;43.570;1.448;2022-07-04T04:47:29;4.35;;;2.40;;
14847;SDS011;7516;43.570;1.448;2022-07-04T04:49:56;9.38;;;2.53;;
14847;SDS011;7516;43.570;1.448;2022-07-04T04:52:24;5.32;;;2.33;;
14847;SDS011;7516;43.570;1.448;2022-07-04T04:54:51;6.97;;;2.40;;
14847;SDS011;7516;43.570;1.448;2022-07-04T04:57:19;7.18;;;2.53;;
14847;SDS011;7516;43.570;1.448;2022-07-04T04:59:47;7.15;;;2.13;;
14847;SDS011;7516;43.570;1.448;2022-07-04T05:02:15;4.78;;;2.42;;
14847;SDS011;7516;43.570;1.448;2022-07-04T05:04:42;6.82;;;2.70;;
14847;SDS011;7516;43.570;1.448;2022-07-04T05:07:10;4.65;;;2.40;;
14847;SDS011;7516;43.570;1.448;2022-07-04T05:09:37;4.47;;;2.25;;
14847;SDS011;7516;43.570;1.448;2022-07-04T05:12:05;4.95;;;2.10;;
14847;SDS011;7516;43.570;1.448;2022-07-04T05:14:33;4.13;;;2.40;;
14847;SDS011;7516;43.570;1.448;2022-07-04T05:17:02;6.05;;;2.20;;
14847;SDS011;7516;43.570;1.448;2022-07-04T05:19:30;4.38;;;2.20;;
14847;SDS011;7516;43.570;1.448;2022-07-04T05:21:57;2.40;;;1.80;;
14847;SDS011;7516;43.570;1.448;2022-07-04T05:24:25;5.65;;;2.03;;
14847;SDS011;7516;43.570;1.448;2022-07-04T05:26:52;3.05;;;2.05;;
14847;SDS011;7516;43.570;1.448;2022-07-04T05:29:20;3.22;;;2.30;;
14847;SDS011;7516;43.570;1.448;2022-07-04T05:31:47;2.97;;;1.80;;
14847;SDS011;7516;43.570;1.448;2022-07-04T05:34:16;3.75;;;1.95;;
14847;SDS011;7516;43.570;1.448;2022-07-04T05:36:44;4.88;;;2.00;;
14847;SDS011;7516;43.570;1.448;2022-07-04T05:39:11;3.85;;;1.92;;
14847;SDS011;7516;43.570;1.448;2022-07-04T05:41:39;3.03;;;2.20;;
14847;SDS011;7516;43.570;1.448;2022-07-04T05:44:06;5.82;;;2.55;;
14847;SDS011;7516;43.570;1.448;2022-07-04T05:46:34;5.22;;;1.98;;
14847;SDS011;7516;43.570;1.448;2022-07-04T05:49:01;4.65;;;2.30;;
14847;SDS011;7516;43.570;1.448;2022-07-04T05:51:30;6.32;;;2.80;;
14847;SDS011;7516;43.570;1.448;2022-07-04T05:53:58;3.70;;;1.90;;
14847;SDS011;7516;43.570;1.448;2022-07-04T05:56:25;4.03;;;1.90;;
14847;SDS011;7516;43.570;1.448;2022-07-04T05:58:53;4.32;;;2.60;;
14847;SDS011;7516;43.570;1.448;2022-07-04T06:01:20;4.22;;;1.98;;
14847;SDS011;7516;43.570;1.448;2022-07-04T06:03:48;4.97;;;2.20;;
14847;SDS011;7516;43.570;1.448;2022-07-04T06:06:16;6.95;;;2.30;;
14847;SDS011;7516;43.570;1.448;2022-07-04T06:08:45;5.00;;;1.95;;
14847;SDS011;7516;43.570;1.448;2022-07-04T06:11:12;5.57;;;2.25;;
14847;SDS011;7516;43.570;1.448;2022-07-04T06:13:42;4.82;;;2.20;;
14847;SDS011;7516;43.570;1.448;2022-07-04T06:16:10;5.28;;;2.10;;
14847;SDS011;7516;43.570;1.448;2022-07-04T06:18:37;2.83;;;1.88;;
14847;SDS011;7516;43.570;1.448;2022-07-04T06:21:05;5.15;;;2.17;;
14847;SDS011;7516;43.570;1.448;2022-07-04T06:23:33;5.93;;;2.40;;
14847;SDS011;7516;43.570;1.448;2022-07-04T06:26:02;4.70;;;2.10;;
14847;SDS011;7516;43.570;1.448;2022-07-04T06:28:30;4.00;;;1.85;;
14847;SDS011;7516;43.570;1.448;2022-07-04T06:30:58;3.17;;;1.88;;
14847;SDS011;7516;43.570;1.448;2022-07-04T06:33:25;4.28;;;2.03;;
14847;SDS011;7516;43.570;1.448;2022-07-04T06:35:53;4.13;;;2.20;;
14847;SDS011;7516;43.570;1.448;2022-07-04T06:38:20;4.28;;;2.03;;
14847;SDS011;7516;43.570;1.448;2022-07-04T06:40:49;5.63;;;2.00;;
14847;SDS011;7516;43.570;1.448;2022-07-04T06:43:20;5.00;;;2.00;;
14847;SDS011;7516;43.570;1.448;2022-07-04T06:45:48;5.68;;;1.90;;
14847;SDS011;7516;43.570;1.448;2022-07-04T06:48:16;6.32;;;2.10;;
14847;SDS011;7516;43.570;1.448;2022-07-04T06:50:44;4.90;;;2.00;;
14847;SDS011;7516;43.570;1.448;2022-07-04T06:53:11;4.25;;;2.15;;
14847;SDS011;7516;43.570;1.448;2022-07-04T06:55:39;4.55;;;2.00;;
14847;SDS011;7516;43.570;1.448;2022-07-04T06:58:08;6.38;;;2.20;;
14847;SDS011;7516;43.570;1.448;2022-07-04T07:00:38;6.30;;;2.35;;
14847;SDS011;7516;43.570;1.448;2022-07-04T07:03:07;5.68;;;2.05;;
14847;SDS011;7516;43.570;1.448;2022-07-04T07:05:35;6.40;;;2.10;;
14847;SDS011;7516;43.570;1.448;2022-07-04T07:08:03;4.93;;;1.92;;
14847;SDS011;7516;43.570;1.448;2022-07-04T07:10:30;5.47;;;2.15;;
14847;SDS011;7516;43.570;1.448;2022-07-04T07:12:58;4.28;;;1.83;;
14847;SDS011;7516;43.570;1.448;2022-07-04T07:15:25;3.28;;;1.95;;
14847;SDS011;7516;43.570;1.448;2022-07-04T07:17:55;6.43;;;2.05;;
14847;SDS011;7516;43.570;1.448;2022-07-04T07:20:22;5.78;;;2.17;;
14847;SDS011;7516;43.570;1.448;2022-07-04T07:22:49;5.65;;;2.17;;
14847;SDS011;7516;43.570;1.448;2022-07-04T07:25:17;5.68;;;2.00;;
14847;SDS011;7516;43.570;1.448;2022-07-04T07:27:44;6.57;;;2.00;;
14847;SDS011;7516;43.570;1.448;2022-07-04T07:30:12;4.32;;;2.13;;
14847;SDS011;7516;43.570;1.448;2022-07-04T07:32:41;7.22;;;1.98;;
14847;SDS011;7516;43.570;1.448;2022-07-04T07:35:11;5.25;;;2.15;;
14847;SDS011;7516;43.570;1.448;2022-07-04T07:37:40;5.10;;;1.75;;
14847;SDS011;7516;43.570;1.448;2022-07-04T07:40:08;4.82;;;2.00;;
14847;SDS011;7516;43.570;1.448;2022-07-04T07:42:36;4.85;;;2.08;;
14847;SDS011;7516;43.570;1.448;2022-07-04T07:45:04;9.90;;;2.38;;
14847;SDS011;7516;43.570;1.448;2022-07-04T07:47:32;4.75;;;1.80;;
14847;SDS011;7516;43.570;1.448;2022-07-04T07:50:00;3.35;;;1.65;;
14847;SDS011;7516;43.570;1.448;2022-07-04T07:52:30;5.40;;;2.22;;
14847;SDS011;7516;43.570;1.448;2022-07-04T07:54:57;3.58;;;1.90;;
14847;SDS011;7516;43.570;1.448;2022-07-04T07:57:25;6.25;;;2.30;;
14847;SDS011;7516;43.570;1.448;2022-07-04T07:59:52;5.88;;;2.30;;
14847;SDS011;7516;43.570;1.448;2022-07-04T08:02:20;8.20;;;2.00;;
14847;SDS011;7516;43.570;1.448;2022-07-04T08:05:08;6.20;;;2.30;;
14847;SDS011;7516;43.570;1.448;2022-07-04T08:07:37;4.85;;;2.17;;
14847;SDS011;7516;43.570;1.448;2022-07-04T08:10:06;7.75;;;2.80;;
14847;SDS011;7516;43.570;1.448;2022-07-04T08:12:34;6.15;;;2.53;;
14847;SDS011;7516;43.570;1.448;2022-07-04T08:15:02;5.03;;;2.22;;
14847;SDS011;7516;43.570;1.448;2022-07-04T08:17:30;6.50;;;2.45;;
14847;SDS011;7516;43.570;1.448;2022-07-04T08:19:57;6.75;;;2.58;;
14847;SDS011;7516;43.570;1.448;2022-07-04T08:22:25;6.40;;;2.50;;
14847;SDS011;7516;43.570;1.448;2022-07-04T08:24:54;4.88;;;2.45;;
14847;SDS011;7516;43.570;1.448;2022-07-04T08:27:22;5.45;;;2.50;;
14847;SDS011;7516;43.570;1.448;2022-07-04T08:29:49;6.55;;;2.72;;
14847;SDS011;7516;43.570;1.448;2022-07-04T08:32:17;7.53;;;2.80;;
14847;SDS011;7516;43.570;1.448;2022-07-04T08:34:44;4.68;;;2.40;;
14847;SDS011;7516;43.570;1.448;2022-07-04T08:37:12;7.20;;;2.20;;
14847;SDS011;7516;43.570;1.448;2022-07-04T08:39:40;4.95;;;2.50;;
14847;SDS011;7516;43.570;1.448;2022-07-04T08:42:12;8.38;;;3.97;;
14847;SDS011;7516;43.570;1.448;2022-07-04T08:44:44;6.85;;;3.38;;
14847;SDS011;7516;43.570;1.448;2022-07-04T08:47:16;7.45;;;4.05;;
14847;SDS011;7516;43.570;1.448;2022-07-04T08:49:46;6.25;;;4.28;;
14847;SDS011;7516;43.570;1.448;2022-07-04T08:52:23;6.70;;;4.68;;
14847;SDS011;7516;43.570;1.448;2022-07-04T08:55:02;7.18;;;4.53;;
14847;SDS011;7516;43.570;1.448;2022-07-04T08:57:49;6.95;;;4.07;;
14847;SDS011;7516;43.570;1.448;2022-07-04T09:00:36;7.03;;;3.60;;
14847;SDS011;7516;43.570;1.448;2022-07-04T09:03:04;6.03;;;3.90;;
14847;SDS011;7516;43.570;1.448;2022-07-04T09:05:32;9.25;;;4.25;;
14847;SDS011;7516;43.570;1.448;2022-07-04T09:08:01;6.68;;;4.30;;
14847;SDS011;7516;43.570;1.448;2022-07-04T09:10:30;6.97;;;3.72;;
14847;SDS011;7516;43.570;1.448;2022-07-04T09:13:00;6.70;;;4.18;;
14847;SDS011;7516;43.570;1.448;2022-07-04T09:15:29;5.55;;;4.38;;
14847;SDS011;7516;43.570;1.448;2022-07-04T09:17:57;6.05;;;4.05;;
14847;SDS011;7516;43.570;1.448;2022-07-04T09:20:26;7.63;;;4.13;;
14847;SDS011;7516;43.570;1.448;2022-07-04T09:22:56;5.40;;;3.97;;
14847;SDS011;7516;43.570;1.448;2022-07-04T09:25:24;7.53;;;3.90;;
14847;SDS011;7516;43.570;1.448;2022-07-04T09:27:52;9.65;;;4.93;;
14847;SDS011;7516;43.570;1.448;2022-07-04T09:30:23;5.43;;;4.03;;
14847;SDS011;7516;43.570;1.448;2022-07-04T09:32:52;8.65;;;4.00;;
14847;SDS011;7516;43.570;1.448;2022-07-04T09:35:25;4.72;;;3.63;;
14847;SDS011;7516;43.570;1.448;2022-07-04T09:37:55;7.25;;;4.15;;
14847;SDS011;7516;43.570;1.448;2022-07-04T09:40:25;5.32;;;3.85;;
14847;SDS011;7516;43.570;1.448;2022-07-04T09:42:54;7.13;;;3.92;;
14847;SDS011;7516;43.570;1.448;2022-07-04T09:45:25;5.57;;;3.83;;
14847;SDS011;7516;43.570;1.448;2022-07-04T09:47:54;6.25;;;3.95;;
14847;SDS011;7516;43.570;1.448;2022-07-04T09:50:23;5.97;;;3.67;;
14847;SDS011;7516;43.570;1.448;2022-07-04T09:52:52;5.55;;;3.55;;
14847;SDS011;7516;43.570;1.448;2022-07-04T09:55:22;5.10;;;3.55;;
14847;SDS011;7516;43.570;1.448;2022-07-04T09:57:51;3.88;;;3.28;;
14847;SDS011;7516;43.570;1.448;2022-07-04T10:00:20;4.50;;;3.00;;
14847;SDS011;7516;43.570;1.448;2022-07-04T10:02:50;4.55;;;3.72;;
14847;SDS011;7516;43.570;1.448;2022-07-04T10:05:19;4.50;;;3.17;;
14847;SDS011;7516;43.570;1.448;2022-07-04T10:07:48;5.82;;;3.25;;
14847;SDS011;7516;43.570;1.448;2022-07-04T10:10:23;5.93;;;3.50;;
14847;SDS011;7516;43.570;1.448;2022-07-04T10:12:53;7.65;;;3.88;;
14847;SDS011;7516;43.570;1.448;2022-07-04T10:15:22;6.90;;;3.92;;
14847;SDS011;7516;43.570;1.448;2022-07-04T10:17:51;5.38;;;3.53;;
14847;SDS011;7516;43.570;1.448;2022-07-04T10:20:19;4.35;;;3.30;;
14847;SDS011;7516;43.570;1.448;2022-07-04T10:22:47;4.80;;;3.67;;
14847;SDS011;7516;43.570;1.448;2022-07-04T10:25:14;4.47;;;3.08;;
14847;SDS011;7516;43.570;1.448;2022-07-04T10:27:42;6.60;;;3.35;;
14847;SDS011;7516;43.570;1.448;2022-07-04T10:30:11;4.38;;;3.10;;
14847;SDS011;7516;43.570;1.448;2022-07-04T10:32:40;5.60;;;3.08;;
14847;SDS011;7516;43.570;1.448;2022-07-04T10:35:15;4.03;;;2.92;;
14847;SDS011;7516;43.570;1.448;2022-07-04T10:37:58;4.13;;;3.40;;
14847;SDS011;7516;43.570;1.448;2022-07-04T10:40:40;4.57;;;3.30;;
14847;SDS011;7516;43.570;1.448;2022-07-04T10:49:24;4.53;;;2.80;;
14847;SDS011;7516;43.570;1.448;2022-07-04T10:51:55;3.05;;;2.50;;
14847;SDS011;7516;43.570;1.448;2022-07-04T10:54:34;3.75;;;2.70;;
14847;SDS011;7516;43.570;1.448;2022-07-04T10:57:11;5.57;;;3.10;;
14847;SDS011;7516;43.570;1.448;2022-07-04T10:59:41;3.83;;;2.60;;
14847;SDS011;7516;43.570;1.448;2022-07-04T11:02:25;5.68;;;2.95;;
14847;SDS011;7516;43.570;1.448;2022-07-04T11:04:58;3.03;;;2.33;;
14847;SDS011;7516;43.570;1.448;2022-07-04T11:10:30;3.80;;;2.40;;
14847;SDS011;7516;43.570;1.448;2022-07-04T11:13:16;3.65;;;3.03;;
14847;SDS011;7516;43.570;1.448;2022-07-04T11:15:56;6.68;;;2.60;;
14847;SDS011;7516;43.570;1.448;2022-07-04T11:18:25;5.68;;;2.80;;
14847;SDS011;7516;43.570;1.448;2022-07-04T11:20:55;3.70;;;2.38;;
14847;SDS011;7516;43.570;1.448;2022-07-04T11:23:24;3.45;;;2.47;;
14847;SDS011;7516;43.570;1.448;2022-07-04T11:25:52;3.58;;;2.65;;
14847;SDS011;7516;43.570;1.448;2022-07-04T11:28:22;3.25;;;2.47;;
14847;SDS011;7516;43.570;1.448;2022-07-04T11:30:51;3.42;;;2.50;;
14847;SDS011;7516;43.570;1.448;2022-07-04T11:33:21;3.55;;;2.78;;
14847;SDS011;7516;43.570;1.448;2022-07-04T11:36:02;3.03;;;2.42;;
14847;SDS011;7516;43.570;1.448;2022-07-04T11:38:48;3.60;;;2.50;;
14847;SDS011;7516;43.570;1.448;2022-07-04T11:41:18;3.97;;;2.47;;
14847;SDS011;7516;43.570;1.448;2022-07-04T11:44:05;3.10;;;2.70;;
14847;SDS011;7516;43.570;1.448;2022-07-04T11:47:01;5.38;;;2.28;;
14847;SDS011;7516;43.570;1.448;2022-07-04T11:49:30;3.35;;;2.50;;
14847;SDS011;7516;43.570;1.448;2022-07-04T11:51:57;4.95;;;2.53;;
14847;SDS011;7516;43.570;1.448;2022-07-04T11:54:26;4.80;;;2.55;;
14847;SDS011;7516;43.570;1.448;2022-07-04T11:57:07;3.47;;;2.83;;
14847;SDS011;7516;43.570;1.448;2022-07-04T11:59:36;3.58;;;2.78;;
14847;SDS011;7516;43.570;1.448;2022-07-04T12:02:10;5.40;;;2.88;;
14847;SDS011;7516;43.570;1.448;2022-07-04T12:04:39;4.82;;;3.10;;
14847;SDS011;7516;43.570;1.448;2022-07-04T12:07:10;4.32;;;2.97;;
14847;SDS011;7516;43.570;1.448;2022-07-04T12:09:41;3.90;;;2.92;;
14847;SDS011;7516;43.570;1.448;2022-07-04T12:12:10;3.88;;;2.78;;
14847;SDS011;7516;43.570;1.448;2022-07-04T12:14:39;5.22;;;2.90;;
14847;SDS011;7516;43.570;1.448;2022-07-04T12:17:21;3.75;;;2.65;;
14847;SDS011;7516;43.570;1.448;2022-07-04T12:19:55;3.90;;;2.78;;
14847;SDS011;7516;43.570;1.448;2022-07-04T12:25:18;4.47;;;2.60;;
14847;SDS011;7516;43.570;1.448;2022-07-04T12:27:54;3.70;;;2.20;;
14847;SDS011;7516;43.570;1.448;2022-07-04T12:30:23;3.63;;;2.25;;
14847;SDS011;7516;43.570;1.448;2022-07-04T12:32:52;2.78;;;2.05;;
14847;SDS011;7516;43.570;1.448;2022-07-04T12:35:36;3.40;;;2.28;;
14847;SDS011;7516;43.570;1.448;2022-07-04T12:38:06;5.50;;;2.30;;
14847;SDS011;7516;43.570;1.448;2022-07-04T12:40:50;3.97;;;2.20;;
14847;SDS011;7516;43.570;1.448;2022-07-04T12:43:19;3.63;;;2.05;;
14847;SDS011;7516;43.570;1.448;2022-07-04T12:45:48;4.95;;;2.10;;
14847;SDS011;7516;43.570;1.448;2022-07-04T12:48:20;2.65;;;2.20;;
14847;SDS011;7516;43.570;1.448;2022-07-04T12:50:50;4.35;;;2.25;;
14847;SDS011;7516;43.570;1.448;2022-07-04T12:53:19;6.22;;;2.97;;
14847;SDS011;7516;43.570;1.448;2022-07-04T12:55:48;3.65;;;2.95;;
14847;SDS011;7516;43.570;1.448;2022-07-04T12:58:16;5.60;;;2.95;;
14847;SDS011;7516;43.570;1.448;2022-07-04T13:00:43;4.75;;;3.25;;
14847;SDS011;7516;43.570;1.448;2022-07-04T13:03:11;3.58;;;3.25;;
14847;SDS011;7516;43.570;1.448;2022-07-04T13:05:38;3.40;;;2.92;;
14847;SDS011;7516;43.570;1.448;2022-07-04T13:08:06;3.83;;;3.35;;
14847;SDS011;7516;43.570;1.448;2022-07-04T13:10:34;2.80;;;2.60;;
14847;SDS011;7516;43.570;1.448;2022-07-04T13:13:03;4.32;;;2.83;;
14847;SDS011;7516;43.570;1.448;2022-07-04T13:15:30;4.75;;;2.88;;
14847;SDS011;7516;43.570;1.448;2022-07-04T13:17:58;4.25;;;2.80;;
14847;SDS011;7516;43.570;1.448;2022-07-04T13:20:27;6.43;;;2.78;;
14847;SDS011;7516;43.570;1.448;2022-07-04T13:22:54;3.20;;;2.72;;
14847;SDS011;7516;43.570;1.448;2022-07-04T13:25:22;4.30;;;3.03;;
14847;SDS011;7516;43.570;1.448;2022-07-04T13:27:50;3.60;;;3.00;;
14847;SDS011;7516;43.570;1.448;2022-07-04T13:30:18;4.63;;;2.63;;
14847;SDS011;7516;43.570;1.448;2022-07-04T13:32:46;3.72;;;3.00;;
14847;SDS011;7516;43.570;1.448;2022-07-04T13:35:14;5.40;;;2.58;;
14847;SDS011;7516;43.570;1.448;2022-07-04T13:37:41;4.55;;;2.90;;
14847;SDS011;7516;43.570;1.448;2022-07-04T13:40:09;8.90;;;2.60;;
14847;SDS011;7516;43.570;1.448;2022-07-04T13:42:37;4.30;;;2.85;;
14847;SDS011;7516;43.570;1.448;2022-07-04T13:45:23;3.35;;;2.40;;
14847;SDS011;7516;43.570;1.448;2022-07-04T13:47:52;3.30;;;2.63;;
14847;SDS011;7516;43.570;1.448;2022-07-04T13:50:20;5.57;;;2.58;;
14847;SDS011;7516;43.570;1.448;2022-07-04T13:52:48;5.53;;;2.60;;
14847;SDS011;7516;43.570;1.448;2022-07-04T13:55:16;4.78;;;2.25;;
14847;SDS011;7516;43.570;1.448;2022-07-04T13:57:43;4.38;;;2.60;;
14847;SDS011;7516;43.570;1.448;2022-07-04T14:00:11;2.95;;;2.65;;
14847;SDS011;7516;43.570;1.448;2022-07-04T14:02:40;2.92;;;2.30;;
14847;SDS011;7516;43.570;1.448;2022-07-04T14:05:08;2.47;;;2.28;;
14847;SDS011;7516;43.570;1.448;2022-07-04T14:07:36;2.53;;;2.30;;
14847;SDS011;7516;43.570;1.448;2022-07-04T14:10:04;2.78;;;2.50;;
14847;SDS011;7516;43.570;1.448;2022-07-04T14:12:31;4.22;;;2.17;;
14847;SDS011;7516;43.570;1.448;2022-07-04T14:14:59;2.83;;;2.30;;
14847;SDS011;7516;43.570;1.448;2022-07-04T14:17:28;4.78;;;2.22;;
14847;SDS011;7516;43.570;1.448;2022-07-04T14:19:57;4.28;;;2.40;;
14847;SDS011;7516;43.570;1.448;2022-07-04T14:22:25;3.95;;;2.35;;
14847;SDS011;7516;43.570;1.448;2022-07-04T14:24:52;3.63;;;2.30;;
14847;SDS011;7516;43.570;1.448;2022-07-04T14:27:20;3.03;;;2.03;;
14847;SDS011;7516;43.570;1.448;2022-07-04T14:29:47;3.33;;;2.22;;
14847;SDS011;7516;43.570;1.448;2022-07-04T14:32:15;3.60;;;2.20;;
14847;SDS011;7516;43.570;1.448;2022-07-04T14:34:43;4.07;;;2.28;;
14847;SDS011;7516;43.570;1.448;2022-07-04T14:37:12;3.72;;;2.22;;
14847;SDS011;7516;43.570;1.448;2022-07-04T14:39:39;6.60;;;2.50;;
14847;SDS011;7516;43.570;1.448;2022-07-04T14:42:07;2.50;;;2.08;;
14847;SDS011;7516;43.570;1.448;2022-07-04T14:44:34;3.40;;;2.13;;
14847;SDS011;7516;43.570;1.448;2022-07-04T14:47:03;3.83;;;2.20;;
14847;SDS011;7516;43.570;1.448;2022-07-04T14:49:31;2.67;;;1.83;;
14847;SDS011;7516;43.570;1.448;2022-07-04T14:51:59;4.82;;;2.10;;
14847;SDS011;7516;43.570;1.448;2022-07-04T14:54:28;4.10;;;2.50;;
14847;SDS011;7516;43.570;1.448;2022-07-04T14:56:55;4.45;;;2.30;;
14847;SDS011;7516;43.570;1.448;2022-07-04T14:59:23;3.03;;;2.30;;
14847;SDS011;7516;43.570;1.448;2022-07-04T15:01:51;2.88;;;2.00;;
14847;SDS011;7516;43.570;1.448;2022-07-04T15:04:19;7.80;;;2.25;;
14847;SDS011;7516;43.570;1.448;2022-07-04T15:06:46;3.80;;;2.63;;
14847;SDS011;7516;43.570;1.448;2022-07-04T15:09:14;3.63;;;2.13;;
14847;SDS011;7516;43.570;1.448;2022-07-04T15:11:42;3.25;;;2.20;;
14847;SDS011;7516;43.570;1.448;2022-07-04T15:14:12;4.07;;;2.65;;
14847;SDS011;7516;43.570;1.448;2022-07-04T15:16:40;2.90;;;2.50;;
14847;SDS011;7516;43.570;1.448;2022-07-04T15:19:07;5.40;;;2.85;;
14847;SDS011;7516;43.570;1.448;2022-07-04T15:21:35;3.50;;;2.55;;
14847;SDS011;7516;43.570;1.448;2022-07-04T15:24:20;4.53;;;2.80;;